sensor_id;sensor_type;location;lat;lon;timestamp;pressure;altitude;pressure_sealevel;temperature;humidity
5691;BME280;2870;42.680;23.364;2022-07-09T00:00:06;95077.25;;;18.43;100.00
5691;BME280;2870;42.680;23.364;2022-07-09T00:02:33;95081.72;;;18.46;100.00
5691;BME280;2870;42.680;23.364;2022-07-09T00:05:00;95079.88;;;18.39;100.00
5691;BME280;2870;42.680;23.364;2022-07-09T00:07:27;95076.50;;;18.31;100.00
5691;BME280;2870;42.680;23.364;2022-07-09T00:09:54;95078.63;;;18.42;100.00
5691;BME280;2870;42.680;23.364;2022-07-09T00:12:22;95075.56;;;18.50;100.00
5691;BME280;2870;42.680;23.364;2022-07-09T00:14:49;95075.78;;;18.42;100.00
5691;BME280;2870;42.680;23.364;2022-07-09T00:17:16;95082.69;;;18.27;100.00
5691;BME280;2870;42.680;23.364;2022-07-09T00:19:43;95077.50;;;18.36;100.00
5691;BME280;2870;42.680;23.364;2022-07-09T00:22:09;95073.59;;;18.52;100.00
5691;BME280;2870;42.680;23.364;2022-07-09T00:24:36;95065.84;;;18.20;100.00
5691;BME280;2870;42.680;23.364;2022-07-09T00:27:04;95061.41;;;18.17;100.00
5691;BME280;2870;42.680;23.364;2022-07-09T00:29:32;95049.88;;;17.70;100.00
5691;BME280;2870;42.680;23.364;2022-07-09T00:31:59;95049.47;;;17.85;100.00
5691;BME280;2870;42.680;23.364;2022-07-09T00:34:26;95054.13;;;17.81;100.00
5691;BME280;2870;42.680;23.364;2022-07-09T00:36:53;95054.94;;;17.93;100.00
5691;BME280;2870;42.680;23.364;2022-07-09T00:39:20;95053.47;;;18.04;100.00
5691;BME280;2870;42.680;23.364;2022-07-09T00:41:46;95055.91;;;17.97;100.00
5691;BME280;2870;42.680;23.364;2022-07-09T00:44:13;95052.59;;;18.01;100.00
5691;BME280;2870;42.680;23.364;2022-07-09T00:46:41;95063.66;;;17.85;100.00
5691;BME280;2870;42.680;23.364;2022-07-09T00:49:08;95054.81;;;18.02;100.00
5691;BME280;2870;42.680;23.364;2022-07-09T00:51:35;95050.69;;;18.15;100.00
5691;BME280;2870;42.680;23.364;2022-07-09T00:54:02;95043.84;;;18.09;100.00
5691;BME280;2870;42.680;23.364;2022-07-09T00:56:29;95040.13;;;17.94;100.00
5691;BME280;2870;42.680;23.364;2022-07-09T00:58:56;95037.25;;;17.83;100.00
5691;BME280;2870;42.680;23.364;2022-07-09T01:01:24;95037.09;;;17.81;100.00
5691;BME280;2870;42.680;23.364;2022-07-09T01:03:52;95031.94;;;17.77;100.00
5691;BME280;2870;42.680;23.364;2022-07-09T01:06:19;95031.69;;;17.85;100.00
5691;BME280;2870;42.680;23.364;2022-07-09T01:08:46;95031.03;;;18.08;100.00
5691;BME280;2870;42.680;23.364;2022-07-09T01:11:12;95025.00;;;18.13;100.00
5691;BME280;2870;42.680;23.364;2022-07-09T01:13:39;95032.03;;;18.12;100.00
5691;BME280;2870;42.680;23.364;2022-07-09T01:16:11;95028.97;;;17.87;100.00
5691;BME280;2870;42.680;23.364;2022-07-09T01:18:39;95028.78;;;17.94;100.00
5691;BME280;2870;42.680;23.364;2022-07-09T01:21:07;95024.63;;;18.07;100.00
5691;BME280;2870;42.680;23.364;2022-07-09T01:23:34;95030.91;;;18.06;100.00
5691;BME280;2870;42.680;23.364;2022-07-09T01:26:00;95019.56;;;18.06;100.00
5691;BME280;2870;42.680;23.364;2022-07-09T01:28:27;95024.63;;;18.07;100.00
5691;BME280;2870;42.680;23.364;2022-07-09T01:30:54;95023.09;;;17.94;100.00
5691;BME280;2870;42.680;23.364;2022-07-09T01:33:21;95023.09;;;17.94;100.00
5691;BME280;2870;42.680;23.364;2022-07-09T01:35:48;95023.13;;;18.06;100.00
5691;BME280;2870;42.680;23.364;2022-07-09T01:38:16;95017.13;;;17.79;100.00
5691;BME280;2870;42.680;23.364;2022-07-09T01:40:43;95016.34;;;17.99;100.00
5691;BME280;2870;42.680;23.364;2022-07-09T01:43:10;95020.97;;;17.62;100.00
5691;BME280;2870;42.680;23.364;2022-07-09T01:45:38;95019.56;;;17.72;100.00
5691;BME280;2870;42.680;23.364;2022-07-09T01:48:05;95022.81;;;17.57;100.00
5691;BME280;2870;42.680;23.364;2022-07-09T01:50:32;95018.16;;;17.40;100.00
5691;BME280;2870;42.680;23.364;2022-07-09T01:52:59;94971.81;;;17.36;100.00
5691;BME280;2870;42.680;23.364;2022-07-09T01:55:27;95009.50;;;17.60;100.00
5691;BME280;2870;42.680;23.364;2022-07-09T01:57:54;95021.53;;;17.70;100.00
5691;BME280;2870;42.680;23.364;2022-07-09T02:00:20;95023.84;;;17.40;100.00
5691;BME280;2870;42.680;23.364;2022-07-09T02:02:48;95016.81;;;17.41;100.00
5691;BME280;2870;42.680;23.364;2022-07-09T02:05:15;95017.38;;;17.28;100.00
5691;BME280;2870;42.680;23.364;2022-07-09T02:07:42;95026.59;;;17.50;100.00
5691;BME280;2870;42.680;23.364;2022-07-09T02:10:09;95024.91;;;17.57;100.00
5691;BME280;2870;42.680;23.364;2022-07-09T02:12:37;95028.88;;;17.63;100.00
5691;BME280;2870;42.680;23.364;2022-07-09T02:15:05;95028.63;;;17.59;100.00
5691;BME280;2870;42.680;23.364;2022-07-09T02:17:33;95024.78;;;17.55;100.00
5691;BME280;2870;42.680;23.364;2022-07-09T02:20:00;95040.09;;;17.61;100.00
5691;BME280;2870;42.680;23.364;2022-07-09T02:22:27;95036.25;;;17.57;100.00
5691;BME280;2870;42.680;23.364;2022-07-09T02:24:54;95035.22;;;17.52;100.00
5691;BME280;2870;42.680;23.364;2022-07-09T02:27:21;95035.00;;;17.48;100.00
5691;BME280;2870;42.680;23.364;2022-07-09T02:29:49;95028.09;;;17.51;100.00
5691;BME280;2870;42.680;23.364;2022-07-09T02:32:16;95041.41;;;17.48;100.00
5691;BME280;2870;42.680;23.364;2022-07-09T02:34:42;95038.00;;;17.40;100.00
5691;BME280;2870;42.680;23.364;2022-07-09T02:37:09;95043.16;;;17.54;100.00
5691;BME280;2870;42.680;23.364;2022-07-09T02:39:36;95044.47;;;17.53;100.00
5691;BME280;2870;42.680;23.364;2022-07-09T02:42:03;95038.75;;;17.62;100.00
5691;BME280;2870;42.680;23.364;2022-07-09T02:44:30;95038.56;;;17.48;100.00
5691;BME280;2870;42.680;23.364;2022-07-09T02:46:59;95039.44;;;17.51;100.00
5691;BME280;2870;42.680;23.364;2022-07-09T02:49:26;95037.59;;;17.77;100.00
5691;BME280;2870;42.680;23.364;2022-07-09T02:51:52;95041.78;;;17.55;100.00
5691;BME280;2870;42.680;23.364;2022-07-09T02:54:20;95043.41;;;17.58;100.00
5691;BME280;2870;42.680;23.364;2022-07-09T02:56:46;95052.53;;;17.78;100.00
5691;BME280;2870;42.680;23.364;2022-07-09T02:59:14;95046.13;;;17.77;100.00
5691;BME280;2870;42.680;23.364;2022-07-09T03:01:41;95050.03;;;17.72;100.00
5691;BME280;2870;42.680;23.364;2022-07-09T03:04:09;95047.59;;;17.78;100.00
5691;BME280;2870;42.680;23.364;2022-07-09T03:06:35;95055.97;;;17.55;100.00
5691;BME280;2870;42.680;23.364;2022-07-09T03:09:03;95052.56;;;17.68;100.00
5691;BME280;2870;42.680;23.364;2022-07-09T03:11:30;95057.63;;;17.69;100.00
5691;BME280;2870;42.680;23.364;2022-07-09T03:13:56;95060.41;;;17.58;100.00
5691;BME280;2870;42.680;23.364;2022-07-09T03:16:23;95061.25;;;17.48;100.00
5691;BME280;2870;42.680;23.364;2022-07-09T03:18:50;95052.41;;;17.54;100.00
5691;BME280;2870;42.680;23.364;2022-07-09T03:21:18;95057.06;;;17.49;100.00
5691;BME280;2870;42.680;23.364;2022-07-09T03:23:45;95053.75;;;17.53;100.00
5691;BME280;2870;42.680;23.364;2022-07-09T03:26:12;95056.50;;;17.63;100.00
5691;BME280;2870;42.680;23.364;2022-07-09T03:28:39;95053.63;;;17.72;100.00
5691;BME280;2870;42.680;23.364;2022-07-09T03:31:05;95058.97;;;17.90;100.00
5691;BME280;2870;42.680;23.364;2022-07-09T03:33:32;95048.06;;;17.74;100.00
5691;BME280;2870;42.680;23.364;2022-07-09T03:35:59;95043.41;;;17.58;100.00
5691;BME280;2870;42.680;23.364;2022-07-09T03:38:27;95051.63;;;17.75;100.00
5691;BME280;2870;42.680;23.364;2022-07-09T03:40:54;95038.63;;;17.82;100.00
5691;BME280;2870;42.680;23.364;2022-07-09T03:43:22;95045.53;;;17.90;100.00
5691;BME280;2870;42.680;23.364;2022-07-09T03:45:48;95047.94;;;17.51;100.00
5691;BME280;2870;42.680;23.364;2022-07-09T03:48:15;95049.22;;;17.60;100.00
5691;BME280;2870;42.680;23.364;2022-07-09T03:50:42;95052.53;;;17.56;100.00
5691;BME280;2870;42.680;23.364;2022-07-09T03:53:09;95058.25;;;17.68;100.00
5691;BME280;2870;42.680;23.364;2022-07-09T03:55:37;95055.56;;;17.70;100.00
5691;BME280;2870;42.680;23.364;2022-07-09T03:58:04;95061.66;;;17.55;100.00
5691;BME280;2870;42.680;23.364;2022-07-09T04:00:31;95070.28;;;17.57;100.00
5691;BME280;2870;42.680;23.364;2022-07-09T04:02:57;95062.25;;;17.74;100.00
5691;BME280;2870;42.680;23.364;2022-07-09T04:05:24;95060.06;;;17.85;100.00
5691;BME280;2870;42.680;23.364;2022-07-09T04:07:51;95055.84;;;17.74;100.00
5691;BME280;2870;42.680;23.364;2022-07-09T04:10:18;95052.78;;;17.60;100.00
5691;BME280;2870;42.680;23.364;2022-07-09T04:12:47;95061.78;;;17.57;100.00
5691;BME280;2870;42.680;23.364;2022-07-09T04:15:13;95057.72;;;17.60;100.00
5691;BME280;2870;42.680;23.364;2022-07-09T04:17:40;95062.50;;;17.57;100.00
5691;BME280;2870;42.680;23.364;2022-07-09T04:20:08;95071.28;;;17.61;100.00
5691;BME280;2870;42.680;23.364;2022-07-09T04:22:35;95071.06;;;17.69;100.00
5691;BME280;2870;42.680;23.364;2022-07-09T04:25:02;95075.22;;;17.78;100.00
5691;BME280;2870;42.680;23.364;2022-07-09T04:27:29;95075.97;;;17.78;100.00
5691;BME280;2870;42.680;23.364;2022-07-09T04:29:57;95078.50;;;17.95;100.00
5691;BME280;2870;42.680;23.364;2022-07-09T04:32:24;95077.69;;;18.05;100.00
5691;BME280;2870;42.680;23.364;2022-07-09T04:34:51;95077.41;;;18.00;100.00
5691;BME280;2870;42.680;23.364;2022-07-09T04:37:18;95072.84;;;17.74;100.00
5691;BME280;2870;42.680;23.364;2022-07-09T04:39:45;95064.75;;;17.80;100.00
5691;BME280;2870;42.680;23.364;2022-07-09T04:42:12;95061.81;;;17.90;100.00
5691;BME280;2870;42.680;23.364;2022-07-09T04:44:39;95056.84;;;17.79;100.00
5691;BME280;2870;42.680;23.364;2022-07-09T04:47:08;95058.09;;;17.76;100.00
5691;BME280;2870;42.680;23.364;2022-07-09T04:49:35;95062.91;;;17.85;100.00
5691;BME280;2870;42.680;23.364;2022-07-09T04:52:03;95064.03;;;17.91;100.00
5691;BME280;2870;42.680;23.364;2022-07-09T04:54:29;95059.38;;;17.96;100.00
5691;BME280;2870;42.680;23.364;2022-07-09T04:56:56;95065.78;;;17.96;100.00
5691;BME280;2870;42.680;23.364;2022-07-09T04:59:23;95056.94;;;18.02;100.00
5691;BME280;2870;42.680;23.364;2022-07-09T05:01:50;95074.38;;;17.87;100.00
5691;BME280;2870;42.680;23.364;2022-07-09T05:04:18;95063.56;;;17.95;100.00
5691;BME280;2870;42.680;23.364;2022-07-09T05:06:45;95068.81;;;18.10;100.00
5691;BME280;2870;42.680;23.364;2022-07-09T05:09:12;95068.84;;;18.22;100.00
5691;BME280;2870;42.680;23.364;2022-07-09T05:11:38;95072.63;;;18.15;100.00
5691;BME280;2870;42.680;23.364;2022-07-09T05:14:06;95074.31;;;17.96;100.00
5691;BME280;2870;42.680;23.364;2022-07-09T05:16:33;95081.47;;;17.97;100.00
5691;BME280;2870;42.680;23.364;2022-07-09T05:18:59;95084.16;;;18.28;100.00
5691;BME280;2870;42.680;23.364;2022-07-09T05:21:28;95088.34;;;18.16;100.00
5691;BME280;2870;42.680;23.364;2022-07-09T05:23:55;95089.47;;;18.22;100.00
5691;BME280;2870;42.680;23.364;2022-07-09T05:26:22;95088.06;;;18.12;100.00
5691;BME280;2870;42.680;23.364;2022-07-09T05:28:49;95085.59;;;18.18;100.00
5691;BME280;2870;42.680;23.364;2022-07-09T05:31:15;95088.81;;;18.12;100.00
5691;BME280;2870;42.680;23.364;2022-07-09T05:33:42;95098.88;;;18.04;100.00
5691;BME280;2870;42.680;23.364;2022-07-09T05:36:09;95106.88;;;18.28;100.00
5691;BME280;2870;42.680;23.364;2022-07-09T05:38:37;95104.03;;;18.28;100.00
5691;BME280;2870;42.680;23.364;2022-07-09T05:41:04;95106.91;;;18.40;100.00
5691;BME280;2870;42.680;23.364;2022-07-09T05:43:32;95107.97;;;18.68;100.00
5691;BME280;2870;42.680;23.364;2022-07-09T05:45:59;95107.88;;;18.78;100.00
5691;BME280;2870;42.680;23.364;2022-07-09T05:48:26;95101.44;;;18.21;100.00
5691;BME280;2870;42.680;23.364;2022-07-09T05:50:52;95102.53;;;18.16;100.00
5691;BME280;2870;42.680;23.364;2022-07-09T05:53:20;95102.91;;;18.22;100.00
5691;BME280;2870;42.680;23.364;2022-07-09T05:55:48;95107.22;;;18.23;100.00
5691;BME280;2870;42.680;23.364;2022-07-09T05:58:15;95103.63;;;18.56;100.00
5691;BME280;2870;42.680;23.364;2022-07-09T06:00:42;95105.28;;;18.37;100.00
5691;BME280;2870;42.680;23.364;2022-07-09T06:03:09;95106.53;;;18.46;100.00
5691;BME280;2870;42.680;23.364;2022-07-09T06:05:36;95104.28;;;18.21;100.00
5691;BME280;2870;42.680;23.364;2022-07-09T06:08:03;95104.00;;;18.17;100.00
5691;BME280;2870;42.680;23.364;2022-07-09T06:10:30;95100.88;;;18.46;100.00
5691;BME280;2870;42.680;23.364;2022-07-09T06:12:58;95109.56;;;18.83;100.00
5691;BME280;2870;42.680;23.364;2022-07-09T06:15:25;95111.28;;;18.20;100.00
5691;BME280;2870;42.680;23.364;2022-07-09T06:17:52;95110.03;;;18.11;100.00
5691;BME280;2870;42.680;23.364;2022-07-09T06:20:18;95109.03;;;18.07;100.00
5691;BME280;2870;42.680;23.364;2022-07-09T06:22:46;95111.75;;;18.05;100.00
5691;BME280;2870;42.680;23.364;2022-07-09T06:25:13;95119.28;;;18.12;100.00
5691;BME280;2870;42.680;23.364;2022-07-09T06:27:40;95113.81;;;18.37;100.00
5691;BME280;2870;42.680;23.364;2022-07-09T06:30:09;95118.75;;;18.48;100.00
5691;BME280;2870;42.680;23.364;2022-07-09T06:32:36;95125.69;;;18.45;100.00
5691;BME280;2870;42.680;23.364;2022-07-09T06:35:03;95120.88;;;18.15;100.00
5691;BME280;2870;42.680;23.364;2022-07-09T06:37:30;95118.59;;;18.23;100.00
5691;BME280;2870;42.680;23.364;2022-07-09T06:39:56;95122.41;;;18.16;100.00
5691;BME280;2870;42.680;23.364;2022-07-09T06:42:25;95114.59;;;17.83;100.00
5691;BME280;2870;42.680;23.364;2022-07-09T06:44:52;95119.88;;;17.98;100.00
5691;BME280;2870;42.680;23.364;2022-07-09T06:47:20;95118.06;;;18.15;100.00
5691;BME280;2870;42.680;23.364;2022-07-09T06:49:47;95118.47;;;18.21;100.00
5691;BME280;2870;42.680;23.364;2022-07-09T06:52:14;95127.53;;;18.08;100.00
5691;BME280;2870;42.680;23.364;2022-07-09T06:54:40;95131.50;;;18.14;100.00
5691;BME280;2870;42.680;23.364;2022-07-09T06:57:07;95130.44;;;18.31;100.00
5691;BME280;2870;42.680;23.364;2022-07-09T06:59:35;95127.63;;;18.31;100.00
5691;BME280;2870;42.680;23.364;2022-07-09T07:02:02;95127.44;;;18.62;100.00
5691;BME280;2870;42.680;23.364;2022-07-09T07:04:30;95118.16;;;18.38;100.00
5691;BME280;2870;42.680;23.364;2022-07-09T07:06:57;95126.91;;;18.42;100.00
5691;BME280;2870;42.680;23.364;2022-07-09T07:09:24;95130.25;;;18.39;100.00
5691;BME280;2870;42.680;23.364;2022-07-09T07:11:51;95126.84;;;18.19;100.00
5691;BME280;2870;42.680;23.364;2022-07-09T07:14:18;95136.91;;;18.43;100.00
5691;BME280;2870;42.680;23.364;2022-07-09T07:16:45;95132.59;;;18.42;100.00
5691;BME280;2870;42.680;23.364;2022-07-09T07:19:12;95133.63;;;18.59;100.00
5691;BME280;2870;42.680;23.364;2022-07-09T07:21:40;95131.09;;;18.98;100.00
5691;BME280;2870;42.680;23.364;2022-07-09T07:24:07;95130.00;;;18.91;100.00
5691;BME280;2870;42.680;23.364;2022-07-09T07:26:34;95120.09;;;19.16;99.41
5691;BME280;2870;42.680;23.364;2022-07-09T07:29:02;95128.75;;;19.41;100.00
5691;BME280;2870;42.680;23.364;2022-07-09T07:31:29;95141.19;;;18.77;97.37
5691;BME280;2870;42.680;23.364;2022-07-09T07:33:56;95133.31;;;18.76;99.75
5691;BME280;2870;42.680;23.364;2022-07-09T07:36:23;95128.50;;;19.25;98.04
5691;BME280;2870;42.680;23.364;2022-07-09T07:38:51;95124.53;;;19.66;100.00
5691;BME280;2870;42.680;23.364;2022-07-09T07:41:18;95129.91;;;19.97;95.07
5691;BME280;2870;42.680;23.364;2022-07-09T07:43:46;95127.66;;;19.35;95.95
5691;BME280;2870;42.680;23.364;2022-07-09T07:46:13;95132.72;;;19.13;96.77
5691;BME280;2870;42.680;23.364;2022-07-09T07:48:40;95128.34;;;19.70;98.26
5691;BME280;2870;42.680;23.364;2022-07-09T07:51:08;95134.66;;;19.45;94.03
5691;BME280;2870;42.680;23.364;2022-07-09T07:53:35;95123.28;;;19.33;95.94
5691;BME280;2870;42.680;23.364;2022-07-09T07:56:03;95128.00;;;19.64;93.95
5691;BME280;2870;42.680;23.364;2022-07-09T07:58:30;95122.84;;;19.14;94.73
5691;BME280;2870;42.680;23.364;2022-07-09T08:00:57;95130.25;;;19.30;95.65
5691;BME280;2870;42.680;23.364;2022-07-09T08:03:24;95120.31;;;19.43;95.32
5691;BME280;2870;42.680;23.364;2022-07-09T08:05:51;95124.81;;;19.95;96.16
5691;BME280;2870;42.680;23.364;2022-07-09T08:08:18;95116.72;;;19.54;95.03
5691;BME280;2870;42.680;23.364;2022-07-09T08:10:45;95125.63;;;19.49;95.60
5691;BME280;2870;42.680;23.364;2022-07-09T08:13:15;95126.09;;;19.80;94.70
5691;BME280;2870;42.680;23.364;2022-07-09T08:15:42;95130.63;;;19.97;93.67
5691;BME280;2870;42.680;23.364;2022-07-09T08:18:09;95126.25;;;19.71;93.87
5691;BME280;2870;42.680;23.364;2022-07-09T08:20:38;95123.28;;;19.45;91.41
5691;BME280;2870;42.680;23.364;2022-07-09T08:23:05;95121.53;;;19.75;92.67
5691;BME280;2870;42.680;23.364;2022-07-09T08:25:32;95128.88;;;19.20;95.74
5691;BME280;2870;42.680;23.364;2022-07-09T08:27:58;95121.03;;;19.55;94.62
5691;BME280;2870;42.680;23.364;2022-07-09T08:30:27;95124.16;;;19.59;92.38
5691;BME280;2870;42.680;23.364;2022-07-09T08:32:53;95116.78;;;19.92;92.30
5691;BME280;2870;42.680;23.364;2022-07-09T08:35:20;95122.38;;;19.78;91.96
5691;BME280;2870;42.680;23.364;2022-07-09T08:37:47;95130.88;;;19.90;92.66
5691;BME280;2870;42.680;23.364;2022-07-09T08:40:14;95133.22;;;20.30;91.55
5691;BME280;2870;42.680;23.364;2022-07-09T08:42:41;95142.72;;;20.09;90.95
5691;BME280;2870;42.680;23.364;2022-07-09T08:45:11;95136.44;;;19.99;88.39
5691;BME280;2870;42.680;23.364;2022-07-09T08:47:41;95135.91;;;20.40;90.05
5691;BME280;2870;42.680;23.364;2022-07-09T08:50:08;95149.69;;;20.32;85.78
5691;BME280;2870;42.680;23.364;2022-07-09T08:52:36;95145.81;;;20.39;86.20
5691;BME280;2870;42.680;23.364;2022-07-09T08:55:04;95147.72;;;19.97;87.95
5691;BME280;2870;42.680;23.364;2022-07-09T08:57:33;95137.25;;;19.76;88.51
5691;BME280;2870;42.680;23.364;2022-07-09T09:00:00;95136.38;;;19.85;89.32
5691;BME280;2870;42.680;23.364;2022-07-09T09:02:26;95141.06;;;20.55;88.12
5691;BME280;2870;42.680;23.364;2022-07-09T09:04:55;95140.09;;;20.13;87.26
5691;BME280;2870;42.680;23.364;2022-07-09T09:07:22;95144.84;;;20.34;86.13
5691;BME280;2870;42.680;23.364;2022-07-09T09:09:49;95135.03;;;19.75;88.34
5691;BME280;2870;42.680;23.364;2022-07-09T09:12:26;95139.81;;;19.84;90.07
5691;BME280;2870;42.680;23.364;2022-07-09T09:14:53;95147.28;;;20.40;88.61
5691;BME280;2870;42.680;23.364;2022-07-09T09:17:20;95146.44;;;20.37;91.69
5691;BME280;2870;42.680;23.364;2022-07-09T09:19:47;95144.19;;;20.10;88.93
5691;BME280;2870;42.680;23.364;2022-07-09T09:22:17;95140.88;;;20.02;90.07
5691;BME280;2870;42.680;23.364;2022-07-09T09:24:50;95138.59;;;20.50;90.15
5691;BME280;2870;42.680;23.364;2022-07-09T09:27:27;95138.03;;;20.65;85.96
5691;BME280;2870;42.680;23.364;2022-07-09T09:29:57;95147.00;;;20.59;87.79
5691;BME280;2870;42.680;23.364;2022-07-09T09:32:24;95139.09;;;20.72;87.14
5691;BME280;2870;42.680;23.364;2022-07-09T09:34:51;95150.00;;;20.50;86.29
5691;BME280;2870;42.680;23.364;2022-07-09T09:37:27;95146.44;;;20.37;84.97
5691;BME280;2870;42.680;23.364;2022-07-09T09:39:54;95135.66;;;20.87;88.32
5691;BME280;2870;42.680;23.364;2022-07-09T09:42:23;95134.31;;;21.15;82.23
5691;BME280;2870;42.680;23.364;2022-07-09T09:44:51;95137.72;;;21.26;79.98
5691;BME280;2870;42.680;23.364;2022-07-09T09:47:20;95139.53;;;21.33;80.63
5691;BME280;2870;42.680;23.364;2022-07-09T09:49:49;95129.34;;;21.02;76.48
5691;BME280;2870;42.680;23.364;2022-07-09T09:52:19;95142.56;;;21.09;77.86
5691;BME280;2870;42.680;23.364;2022-07-09T09:54:47;95145.69;;;21.41;83.02
5691;BME280;2870;42.680;23.364;2022-07-09T09:57:15;95144.63;;;21.48;79.33
5691;BME280;2870;42.680;23.364;2022-07-09T09:59:44;95142.72;;;21.66;80.41
5691;BME280;2870;42.680;23.364;2022-07-09T10:02:11;95142.34;;;21.05;79.26
5691;BME280;2870;42.680;23.364;2022-07-09T10:04:39;95143.75;;;20.79;77.43
5691;BME280;2870;42.680;23.364;2022-07-09T10:07:07;95144.66;;;20.95;78.16
5691;BME280;2870;42.680;23.364;2022-07-09T10:09:34;95142.44;;;21.07;77.31
5691;BME280;2870;42.680;23.364;2022-07-09T10:12:02;95149.63;;;21.08;78.81
5691;BME280;2870;42.680;23.364;2022-07-09T10:14:30;95148.97;;;20.96;78.07
5691;BME280;2870;42.680;23.364;2022-07-09T10:17:10;95148.91;;;21.08;81.07
5691;BME280;2870;42.680;23.364;2022-07-09T10:19:38;95148.16;;;21.07;81.75
5691;BME280;2870;42.680;23.364;2022-07-09T10:22:05;95146.22;;;20.98;81.49
5691;BME280;2870;42.680;23.364;2022-07-09T10:24:33;95151.00;;;21.21;79.11
5691;BME280;2870;42.680;23.364;2022-07-09T10:27:07;95141.84;;;21.23;78.56
5691;BME280;2870;42.680;23.364;2022-07-09T10:29:35;95155.81;;;21.30;78.34
5691;BME280;2870;42.680;23.364;2022-07-09T10:32:03;95149.53;;;20.67;78.81
5691;BME280;2870;42.680;23.364;2022-07-09T10:34:57;95152.81;;;21.14;81.62
5691;BME280;2870;42.680;23.364;2022-07-09T10:37:35;95155.63;;;21.40;79.07
5691;BME280;2870;42.680;23.364;2022-07-09T10:40:13;95162.19;;;21.56;77.78
5691;BME280;2870;42.680;23.364;2022-07-09T10:42:42;95153.38;;;21.38;74.42
5691;BME280;2870;42.680;23.364;2022-07-09T10:45:20;95148.75;;;21.31;78.46
5691;BME280;2870;42.680;23.364;2022-07-09T10:47:52;95153.13;;;20.68;79.16
5691;BME280;2870;42.680;23.364;2022-07-09T10:50:19;95147.00;;;20.59;82.73
5691;BME280;2870;42.680;23.364;2022-07-09T10:52:45;95155.72;;;20.89;76.46
5691;BME280;2870;42.680;23.364;2022-07-09T10:55:15;95152.00;;;20.86;77.49
5691;BME280;2870;42.680;23.364;2022-07-09T10:57:44;95162.97;;;21.17;79.93
5691;BME280;2870;42.680;23.364;2022-07-09T11:00:14;95155.25;;;20.04;85.19
5691;BME280;2870;42.680;23.364;2022-07-09T11:02:51;95166.19;;;19.73;87.79
5691;BME280;2870;42.680;23.364;2022-07-09T11:05:18;95161.88;;;19.48;89.46
5691;BME280;2870;42.680;23.364;2022-07-09T11:07:57;95160.66;;;19.63;88.36
5691;BME280;2870;42.680;23.364;2022-07-09T11:10:24;95164.44;;;20.28;86.66
5691;BME280;2870;42.680;23.364;2022-07-09T11:12:54;95163.53;;;20.00;85.66
5691;BME280;2870;42.680;23.364;2022-07-09T11:15:22;95171.25;;;19.86;86.39
5691;BME280;2870;42.680;23.364;2022-07-09T11:18:07;95163.25;;;19.71;87.29
5691;BME280;2870;42.680;23.364;2022-07-09T11:20:38;95160.66;;;19.63;86.52
5691;BME280;2870;42.680;23.364;2022-07-09T11:23:05;95168.94;;;19.71;88.05
5691;BME280;2870;42.680;23.364;2022-07-09T11:25:32;95167.31;;;19.68;88.74
5691;BME280;2870;42.680;23.364;2022-07-09T11:28:00;95167.88;;;20.01;87.65
5691;BME280;2870;42.680;23.364;2022-07-09T11:30:28;95160.41;;;19.71;86.36
5691;BME280;2870;42.680;23.364;2022-07-09T11:32:56;95102.28;;;19.39;85.65
5691;BME280;2870;42.680;23.364;2022-07-09T11:35:24;95156.81;;;20.07;86.58
5691;BME280;2870;42.680;23.364;2022-07-09T11:37:52;95162.81;;;20.62;83.59
5691;BME280;2870;42.680;23.364;2022-07-09T11:40:19;95155.72;;;19.64;84.16
5691;BME280;2870;42.680;23.364;2022-07-09T11:42:46;95158.19;;;19.69;85.47
5691;BME280;2870;42.680;23.364;2022-07-09T11:45:19;95149.13;;;19.49;84.58
5691;BME280;2870;42.680;23.364;2022-07-09T11:47:47;95148.03;;;19.66;83.48
5691;BME280;2870;42.680;23.364;2022-07-09T11:50:15;95152.97;;;19.66;84.84
5691;BME280;2870;42.680;23.364;2022-07-09T11:52:44;95160.78;;;20.14;83.41
5691;BME280;2870;42.680;23.364;2022-07-09T11:55:14;95160.53;;;19.26;85.50
5691;BME280;2870;42.680;23.364;2022-07-09T11:57:51;95159.91;;;19.04;87.40
5691;BME280;2870;42.680;23.364;2022-07-09T12:00:24;95152.75;;;19.15;88.57
5691;BME280;2870;42.680;23.364;2022-07-09T12:02:53;95160.78;;;19.06;86.74
5691;BME280;2870;42.680;23.364;2022-07-09T12:05:28;95146.31;;;19.14;86.12
5691;BME280;2870;42.680;23.364;2022-07-09T12:07:57;95149.50;;;19.44;84.49
5691;BME280;2870;42.680;23.364;2022-07-09T12:10:26;95153.47;;;19.03;85.80
5691;BME280;2870;42.680;23.364;2022-07-09T12:12:53;95148.22;;;19.94;85.49
5691;BME280;2870;42.680;23.364;2022-07-09T12:15:20;95143.78;;;19.79;83.28
5691;BME280;2870;42.680;23.364;2022-07-09T12:17:52;95143.13;;;20.29;81.99
5691;BME280;2870;42.680;23.364;2022-07-09T12:20:20;95145.47;;;19.96;82.59
5691;BME280;2870;42.680;23.364;2022-07-09T12:22:47;95143.72;;;20.02;82.30
5691;BME280;2870;42.680;23.364;2022-07-09T12:25:14;95143.13;;;20.80;82.05
5691;BME280;2870;42.680;23.364;2022-07-09T12:27:40;95148.53;;;20.11;80.13
5691;BME280;2870;42.680;23.364;2022-07-09T12:30:08;95134.41;;;19.76;81.90
5691;BME280;2870;42.680;23.364;2022-07-09T12:32:36;95134.75;;;19.82;82.16
5691;BME280;2870;42.680;23.364;2022-07-09T12:35:05;95132.41;;;19.79;81.59
5691;BME280;2870;42.680;23.364;2022-07-09T12:37:32;95135.78;;;19.64;83.23
5691;BME280;2870;42.680;23.364;2022-07-09T12:39:59;95140.66;;;20.24;82.69
5691;BME280;2870;42.680;23.364;2022-07-09T12:42:26;95131.03;;;19.92;81.95
5691;BME280;2870;42.680;23.364;2022-07-09T12:44:53;95131.88;;;20.57;82.63
5691;BME280;2870;42.680;23.364;2022-07-09T12:47:20;95129.72;;;19.57;82.30
5691;BME280;2870;42.680;23.364;2022-07-09T12:49:47;95136.16;;;19.70;82.98
5691;BME280;2870;42.680;23.364;2022-07-09T12:52:15;95128.22;;;19.45;82.04
5691;BME280;2870;42.680;23.364;2022-07-09T12:54:42;95124.22;;;19.85;81.52
5691;BME280;2870;42.680;23.364;2022-07-09T12:57:09;95125.16;;;20.01;80.70
5691;BME280;2870;42.680;23.364;2022-07-09T12:59:37;95126.75;;;20.04;79.84
5691;BME280;2870;42.680;23.364;2022-07-09T13:02:05;95127.31;;;19.89;80.73
5691;BME280;2870;42.680;23.364;2022-07-09T13:04:32;95120.88;;;19.89;80.37
5691;BME280;2870;42.680;23.364;2022-07-09T13:06:59;95128.31;;;20.19;80.17